Time;durP1;ratioP1;P1;durP2;ratioP2;P2;SDS_P1;SDS_P2;PMS_P1;PMS_P2;Temp;Humidity;BMP_temperature;BMP_pressure;BME280_temperature;BME280_humidity;BME280_pressure;Samples;Min_cycle;Max_cycle;Signal;HPM_P1;HPM_P2
2023/05/16 00:00:54;;;;;;;6.07;5.47;;;12.00;99.90;;;;;;5076502;28;20463;-81
2023/05/16 00:03:20;;;;;;;6.00;5.40;;;12.00;99.90;;;;;;5080651;28;20403;-82
2023/05/16 00:05:46;;;;;;;5.70;5.30;;;12.00;99.90;;;;;;5089219;28;20380;-82
2023/05/16 00:08:12;;;;;;;6.18;5.57;;;11.90;99.90;;;;;;5095561;28;20457;-82
2023/05/16 00:10:38;;;;;;;5.50;5.10;;;12.00;99.90;;;;;;5077847;28;20389;-82
2023/05/16 00:13:06;;;;;;;5.67;5.27;;;12.00;99.90;;;;;;5077384;28;20468;-81
2023/05/16 00:15:32;;;;;;;5.55;5.15;;;12.00;99.90;;;;;;5074562;28;20412;-81
2023/05/16 00:17:58;;;;;;;6.00;5.40;;;12.00;99.90;;;;;;5075585;28;20383;-82
2023/05/16 00:20:27;;;;;;;5.82;5.28;;;12.10;99.90;;;;;;5075126;28;20402;-82
2023/05/16 00:22:54;;;;;;;5.23;4.73;;;12.10;99.90;;;;;;5092049;28;20389;-81
2023/05/16 00:25:19;;;;;;;5.65;5.15;;;12.10;99.90;;;;;;5094372;28;20392;-81
2023/05/16 00:27:45;;;;;;;6.28;5.68;;;12.10;99.90;;;;;;5079452;28;20439;-82
2023/05/16 00:30:11;;;;;;;6.82;4.80;;;12.10;99.90;;;;;;5074513;28;20383;-81
2023/05/16 00:32:37;;;;;;;5.30;4.90;;;12.20;99.90;;;;;;5057321;28;20466;-81
2023/05/16 00:35:03;;;;;;;5.77;5.30;;;12.20;99.90;;;;;;5056911;28;20422;-81
2023/05/16 00:37:28;;;;;;;5.40;5.00;;;12.10;99.90;;;;;;5056146;28;20391;-82
2023/05/16 00:39:54;;;;;;;6.00;5.47;;;12.10;99.90;;;;;;5068333;28;20413;-82
2023/05/16 00:42:20;;;;;;;5.97;5.47;;;12.10;99.90;;;;;;5094823;28;20756;-81
2023/05/16 00:44:46;;;;;;;5.30;4.90;;;12.10;99.90;;;;;;5076114;28;20888;-81
2023/05/16 00:47:12;;;;;;;5.80;5.30;;;12.10;99.90;;;;;;5094423;28;20887;-82
2023/05/16 00:49:38;;;;;;;5.60;5.10;;;12.10;99.90;;;;;;5085850;28;20388;-82
2023/05/16 00:52:04;;;;;;;5.70;5.30;;;12.10;99.90;;;;;;5071862;28;20409;-81
2023/05/16 00:54:30;;;;;;;5.97;5.47;;;12.10;99.90;;;;;;5094994;28;20374;-82
2023/05/16 00:56:56;;;;;;;5.63;4.88;;;12.10;99.90;;;;;;5093866;28;20390;-81
2023/05/16 00:59:26;;;;;;;6.28;5.68;;;12.10;99.90;;;;;;5099328;28;20386;-82
2023/05/16 01:01:51;;;;;;;7.65;5.75;;;12.10;99.90;;;;;;5083320;28;20894;-81
2023/05/16 01:04:17;;;;;;;5.88;5.38;;;12.20;99.90;;;;;;5083860;28;20396;-81
2023/05/16 01:06:44;;;;;;;6.10;5.00;;;12.20;99.90;;;;;;5116849;28;20388;-81
2023/05/16 01:09:11;;;;;;;6.15;4.90;;;12.30;99.90;;;;;;5098922;28;20387;-81
2023/05/16 01:12:01;;;;;;;5.80;5.30;;;12.30;99.90;;;;;;5078429;28;20477;-82
2023/05/16 01:14:55;;;;;;;5.80;5.32;;;12.30;99.90;;;;;;5098304;28;20458;-81
2023/05/16 01:17:45;;;;;;;6.33;5.73;;;12.20;99.90;;;;;;5078325;28;20427;-81
2023/05/16 01:20:51;;;;;;;5.70;5.30;;;12.10;99.90;;;;;;5071394;28;20541;-81
2023/05/16 01:23:42;;;;;;;5.30;4.90;;;12.20;99.90;;;;;;5032909;28;20392;-81
2023/05/16 01:26:21;;;;;;;6.35;5.85;;;12.20;99.90;;;;;;5057193;28;20414;-81
2023/05/16 01:28:48;;;;;;;5.90;5.40;;;12.10;99.90;;;;;;5074245;28;20395;-82
2023/05/16 01:31:15;;;;;;;5.93;5.43;;;12.10;99.90;;;;;;5094436;28;20431;-81
2023/05/16 01:33:40;;;;;;;6.55;5.95;;;12.00;99.90;;;;;;5096001;28;20446;-81
2023/05/16 01:36:23;;;;;;;6.90;6.30;;;12.00;99.90;;;;;;5095190;28;20868;-81
2023/05/16 01:39:14;;;;;;;6.33;5.83;;;12.00;99.90;;;;;;5095624;28;21037;-80
2023/05/16 01:42:15;;;;;;;6.65;6.05;;;11.90;99.90;;;;;;5075332;28;20392;-81
2023/05/16 01:44:41;;;;;;;6.22;5.72;;;11.90;99.90;;;;;;5058299;28;20392;-81
2023/05/16 01:47:13;;;;;;;8.73;6.10;;;11.90;99.90;;;;;;5091223;28;20419;-81
2023/05/16 01:49:41;;;;;;;6.85;6.20;;;11.80;99.90;;;;;;5077832;28;20439;-81
2023/05/16 01:52:15;;;;;;;6.97;6.38;;;11.80;99.90;;;;;;5078573;28;20406;-82
2023/05/16 01:54:44;;;;;;;6.90;6.30;;;11.90;99.90;;;;;;5095538;28;20427;-81
2023/05/16 01:57:11;;;;;;;6.82;6.22;;;11.90;99.90;;;;;;5090379;28;20399;-81
2023/05/16 01:59:38;;;;;;;6.95;6.35;;;11.80;99.90;;;;;;5075309;28;20419;-81
2023/05/16 02:02:04;;;;;;;7.47;6.28;;;11.90;99.90;;;;;;5075428;28;20395;-81
2023/05/16 02:04:29;;;;;;;6.73;6.23;;;11.90;99.90;;;;;;5084666;28;20414;-81
2023/05/16 02:06:56;;;;;;;6.67;6.13;;;11.90;99.90;;;;;;5112915;28;20515;-81
2023/05/16 02:09:21;;;;;;;6.88;6.38;;;11.90;99.90;;;;;;5094325;28;20378;-81
2023/05/16 02:11:47;;;;;;;7.10;6.50;;;12.00;99.90;;;;;;5076594;28;20411;-81
2023/05/16 02:14:13;;;;;;;7.97;6.90;;;12.00;99.90;;;;;;5062062;28;20395;-81
2023/05/16 02:16:39;;;;;;;7.73;7.03;;;11.90;99.90;;;;;;5073047;28;20376;-81
2023/05/16 02:19:04;;;;;;;7.27;6.67;;;12.10;99.90;;;;;;5074740;28;20544;-80
2023/05/16 02:21:30;;;;;;;7.65;6.95;;;12.00;99.90;;;;;;5055734;28;20758;-81
2023/05/16 02:23:55;;;;;;;7.30;6.70;;;12.10;99.90;;;;;;5076946;28;20973;-81
2023/05/16 02:26:21;;;;;;;7.50;6.90;;;12.00;99.90;;;;;;5055344;28;20387;-81
2023/05/16 02:28:48;;;;;;;8.13;7.43;;;12.00;99.90;;;;;;5074618;28;20413;-81
2023/05/16 02:31:28;;;;;;;8.30;7.50;;;12.00;99.90;;;;;;5057597;28;20441;-81
2023/05/16 02:33:53;;;;;;;8.70;7.90;;;12.00;99.90;;;;;;5066158;28;20386;-81
2023/05/16 02:36:20;;;;;;;7.83;7.23;;;11.90;99.90;;;;;;5073871;28;20833;-80
2023/05/16 02:38:45;;;;;;;7.75;7.15;;;11.90;99.90;;;;;;5075481;28;20417;-81
2023/05/16 02:41:11;;;;;;;8.95;7.80;;;11.90;99.90;;;;;;5075478;28;20699;-81
2023/05/16 02:43:36;;;;;;;8.50;7.80;;;11.90;99.90;;;;;;5075429;28;20442;-81
2023/05/16 02:46:22;;;;;;;10.20;8.23;;;12.00;99.90;;;;;;5074629;28;20451;-81
2023/05/16 02:48:49;;;;;;;9.00;8.10;;;12.00;99.90;;;;;;5057090;28;20454;-81
2023/05/16 02:51:15;;;;;;;8.80;7.90;;;12.00;99.90;;;;;;5055833;28;20468;-81
2023/05/16 02:53:40;;;;;;;12.10;10.90;;;12.10;99.90;;;;;;5056379;28;20902;-81
2023/05/16 02:56:06;;;;;;;11.63;10.57;;;12.20;99.90;;;;;;5059814;28;20405;-81
2023/05/16 02:58:32;;;;;;;11.15;10.15;;;12.30;99.90;;;;;;5094175;28;20381;-81
2023/05/16 03:00:58;;;;;;;11.90;10.80;;;12.30;99.90;;;;;;5075765;28;20386;-81
2023/05/16 03:03:24;;;;;;;11.63;10.63;;;12.30;99.90;;;;;;5075038;28;20442;-81
2023/05/16 03:05:50;;;;;;;12.98;11.68;;;12.20;99.90;;;;;;5107317;28;20376;-81
2023/05/16 03:08:16;;;;;;;12.88;11.57;;;12.20;99.90;;;;;;5089808;28;20481;-81
2023/05/16 03:10:42;;;;;;;13.23;11.93;;;12.20;99.90;;;;;;5073353;28;20379;-81
2023/05/16 03:13:07;;;;;;;13.90;12.60;;;12.20;99.90;;;;;;5073363;28;20388;-81
2023/05/16 03:15:33;;;;;;;14.37;12.97;;;12.20;99.90;;;;;;5056659;28;20399;-81
2023/05/16 03:17:58;;;;;;;13.50;12.20;;;12.10;99.90;;;;;;5057136;28;20471;-80
2023/05/16 03:20:24;;;;;;;14.17;12.67;;;12.20;99.90;;;;;;5092545;28;20366;-80
2023/05/16 03:22:49;;;;;;;14.07;12.67;;;12.10;99.90;;;;;;5082289;28;20762;-80
2023/05/16 03:25:15;;;;;;;14.97;13.57;;;12.10;99.90;;;;;;5072741;28;20463;-81
2023/05/16 03:27:41;;;;;;;14.88;13.40;;;12.10;99.90;;;;;;5072621;28;20437;-81
2023/05/16 03:30:07;;;;;;;15.85;14.25;;;12.10;99.90;;;;;;5073446;28;20407;-81
2023/05/16 03:32:33;;;;;;;16.10;14.60;;;12.10;99.90;;;;;;5057337;28;20486;-81
2023/05/16 03:34:58;;;;;;;17.17;15.57;;;12.00;99.90;;;;;;5073495;28;20380;-81
2023/05/16 03:37:25;;;;;;;17.15;15.55;;;12.00;99.90;;;;;;5073009;28;20797;-80
2023/05/16 03:39:50;;;;;;;17.83;16.10;;;11.90;99.90;;;;;;5073942;28;20391;-81
2023/05/16 03:42:17;;;;;;;16.80;15.10;;;12.10;99.90;;;;;;5077243;28;20399;-81
2023/05/16 03:44:43;;;;;;;17.60;15.80;;;11.90;99.90;;;;;;5115694;28;20389;-80
2023/05/16 03:47:08;;;;;;;16.75;15.00;;;12.00;99.90;;;;;;5114195;28;20413;-80
2023/05/16 03:49:35;;;;;;;16.10;14.70;;;12.00;99.90;;;;;;5086347;28;20403;-81
2023/05/16 03:52:01;;;;;;;14.95;13.60;;;12.10;99.90;;;;;;5062607;28;20391;-81
2023/05/16 03:54:27;;;;;;;16.00;14.33;;;12.00;99.90;;;;;;5057136;28;20380;-82
2023/05/16 03:56:52;;;;;;;16.03;13.80;;;12.00;99.90;;;;;;5056235;28;20735;-81
2023/05/16 03:59:18;;;;;;;14.10;12.80;;;12.10;99.90;;;;;;5059355;28;20928;-80
2023/05/16 04:01:44;;;;;;;14.18;12.77;;;12.10;99.90;;;;;;5076384;28;20418;-80
2023/05/16 04:04:09;;;;;;;14.07;12.67;;;12.20;99.90;;;;;;5096967;28;20378;-80
2023/05/16 04:06:35;;;;;;;14.53;13.13;;;12.00;99.90;;;;;;5115382;28;20928;-80
2023/05/16 04:09:00;;;;;;;16.65;15.05;;;12.00;99.90;;;;;;5105489;28;20424;-81
2023/05/16 04:11:26;;;;;;;15.60;14.10;;;12.00;99.90;;;;;;5077501;28;20390;-81
2023/05/16 04:13:52;;;;;;;16.33;14.25;;;12.00;99.90;;;;;;5076490;28;20471;-80
2023/05/16 04:16:18;;;;;;;14.70;13.40;;;12.00;99.90;;;;;;5093236;28;20386;-80
2023/05/16 04:18:44;;;;;;;14.80;13.40;;;12.00;99.90;;;;;;5069554;28;20391;-79
2023/05/16 04:21:13;;;;;;;15.73;14.13;;;11.90;99.90;;;;;;5073075;28;20437;-79
2023/05/16 04:23:42;;;;;;;17.67;15.35;;;11.90;99.90;;;;;;5072848;28;20791;-80
2023/05/16 04:26:08;;;;;;;16.17;14.52;;;11.80;99.90;;;;;;5063355;28;20398;-80
2023/05/16 04:28:33;;;;;;;17.30;15.60;;;11.80;99.90;;;;;;5093586;28;20412;-80
2023/05/16 04:30:59;;;;;;;17.07;15.37;;;11.80;99.90;;;;;;5094412;28;20756;-80
2023/05/16 04:33:24;;;;;;;15.13;13.53;;;11.80;99.90;;;;;;5079165;28;20389;-79
2023/05/16 04:35:51;;;;;;;16.23;14.63;;;11.80;99.90;;;;;;5074960;28;20418;-79
2023/05/16 04:38:17;;;;;;;17.80;16.00;;;11.70;99.90;;;;;;5063976;28;20456;-79
2023/05/16 04:40:42;;;;;;;20.47;17.63;;;11.70;99.90;;;;;;5084877;28;20904;-79
2023/05/16 04:43:08;;;;;;;19.95;17.85;;;11.70;99.90;;;;;;5096390;28;20822;-80
2023/05/16 04:45:33;;;;;;;19.65;17.65;;;11.70;99.90;;;;;;5096932;28;20752;-80
2023/05/16 04:48:00;;;;;;;19.20;17.20;;;11.70;99.90;;;;;;5082596;28;20442;-80
2023/05/16 04:50:25;;;;;;;19.38;17.38;;;11.70;99.90;;;;;;5072015;28;20402;-80
2023/05/16 04:52:51;;;;;;;19.85;17.85;;;11.70;99.90;;;;;;5086176;28;20487;-80
2023/05/16 04:55:16;;;;;;;21.20;19.00;;;11.60;99.90;;;;;;5086720;28;20395;-80
2023/05/16 04:57:42;;;;;;;21.17;18.93;;;11.60;99.90;;;;;;5097801;28;20394;-80
2023/05/16 05:00:12;;;;;;;21.17;18.97;;;11.60;99.90;;;;;;5092243;28;20491;-80
2023/05/16 05:02:38;;;;;;;22.23;19.85;;;11.60;99.90;;;;;;5070885;28;20595;-79
2023/05/16 05:05:04;;;;;;;22.20;19.90;;;11.70;99.90;;;;;;5099069;28;20388;-80
2023/05/16 05:07:31;;;;;;;21.63;19.40;;;11.70;99.90;;;;;;5080889;28;20478;-78
2023/05/16 05:09:57;;;;;;;21.80;19.45;;;11.60;99.90;;;;;;5099168;28;20467;-81
2023/05/16 05:12:23;;;;;;;23.20;20.43;;;11.50;99.90;;;;;;5097935;28;20378;-80
2023/05/16 05:14:48;;;;;;;22.13;19.83;;;11.50;99.90;;;;;;5097536;28;20386;-78
2023/05/16 05:17:15;;;;;;;22.23;19.93;;;11.30;99.90;;;;;;5077418;28;20759;-78
2023/05/16 05:19:40;;;;;;;24.17;21.58;;;11.30;99.90;;;;;;5078247;28;20873;-80
2023/05/16 05:22:06;;;;;;;25.70;22.63;;;11.30;99.90;;;;;;5077052;28;20387;-80
2023/05/16 05:24:32;;;;;;;26.42;23.60;;;11.40;99.90;;;;;;5058620;28;20399;-81
2023/05/16 05:26:57;;;;;;;28.73;24.38;;;11.40;99.90;;;;;;5075556;28;20391;-81
2023/05/16 05:29:23;;;;;;;27.40;24.42;;;11.30;99.90;;;;;;5057988;28;20475;-80
2023/05/16 05:31:48;;;;;;;28.93;24.43;;;11.30;99.90;;;;;;5085135;28;20389;-78
2023/05/16 05:34:14;;;;;;;27.93;22.80;;;11.20;99.90;;;;;;5069634;28;20392;-78
2023/05/16 05:36:39;;;;;;;27.80;24.20;;;11.20;99.90;;;;;;5086384;28;20386;-80
2023/05/16 05:39:05;;;;;;;29.90;24.35;;;11.20;99.90;;;;;;5086558;28;20397;-79
2023/05/16 05:41:30;;;;;;;28.75;23.40;;;11.20;99.90;;;;;;5094711;28;20438;-78
2023/05/16 05:43:56;;;;;;;29.73;24.30;;;11.10;99.90;;;;;;5093840;28;20928;-78
2023/05/16 05:46:23;;;;;;;30.50;24.50;;;11.10;99.90;;;;;;5061271;28;20734;-81
2023/05/16 05:48:48;;;;;;;34.42;27.08;;;11.10;99.90;;;;;;5076797;28;21010;-79
2023/05/16 05:51:14;;;;;;;36.30;26.53;;;11.00;99.90;;;;;;5058145;28;20402;-82
2023/05/16 05:53:40;;;;;;;34.10;25.40;;;11.00;99.90;;;;;;5076621;28;20876;-81
2023/05/16 05:56:06;;;;;;;31.40;24.15;;;11.00;99.90;;;;;;5086437;28;20382;-80
2023/05/16 05:58:32;;;;;;;30.52;23.77;;;11.00;99.90;;;;;;5057257;28;20399;-80
2023/05/16 06:00:57;;;;;;;33.88;26.27;;;10.90;99.90;;;;;;5077056;28;20391;-82
2023/05/16 06:03:23;;;;;;;37.72;26.95;;;10.90;99.90;;;;;;5063621;28;20484;-78
2023/05/16 06:05:48;;;;;;;35.50;23.87;;;10.90;99.90;;;;;;5095148;28;20396;-78
2023/05/16 06:08:14;;;;;;;34.37;25.43;;;10.80;99.90;;;;;;5092241;28;20402;-83
2023/05/16 06:10:39;;;;;;;33.33;24.27;;;10.80;99.90;;;;;;5096518;28;20374;-82
2023/05/16 06:13:05;;;;;;;34.85;24.15;;;10.70;99.90;;;;;;5077167;28;20382;-80
2023/05/16 06:15:31;;;;;;;39.33;26.95;;;10.70;99.90;;;;;;5076171;28;20393;-79
2023/05/16 06:17:56;;;;;;;38.78;26.48;;;10.70;99.90;;;;;;5094425;28;20465;-81
2023/05/16 06:20:22;;;;;;;39.33;27.35;;;10.70;99.90;;;;;;5072742;28;20449;-80
2023/05/16 06:22:48;;;;;;;38.08;25.42;;;10.70;99.90;;;;;;5057527;28;20391;-81
2023/05/16 06:25:13;;;;;;;39.63;26.40;;;10.60;99.90;;;;;;5076113;28;20441;-79
2023/05/16 06:27:39;;;;;;;36.88;25.42;;;10.60;99.90;;;;;;5074947;28;20408;-82
2023/05/16 06:30:05;;;;;;;36.83;23.97;;;10.60;99.90;;;;;;5074618;28;20830;-79
2023/05/16 06:32:31;;;;;;;32.08;24.73;;;10.60;99.90;;;;;;5075411;28;20391;-83
2023/05/16 06:34:56;;;;;;;36.95;24.80;;;10.60;99.90;;;;;;5057631;28;20384;-81
2023/05/16 06:37:22;;;;;;;39.20;27.02;;;10.60;99.90;;;;;;5075378;28;20824;-80
2023/05/16 06:39:48;;;;;;;40.63;26.27;;;10.50;99.90;;;;;;5063559;28;20445;-81
2023/05/16 06:42:13;;;;;;;38.03;26.30;;;10.60;99.90;;;;;;5063388;28;20394;-81
2023/05/16 06:44:39;;;;;;;40.38;25.90;;;10.60;99.90;;;;;;5060518;28;20429;-81
2023/05/16 06:47:05;;;;;;;38.70;26.00;;;10.60;99.90;;;;;;5090843;28;20505;-80
2023/05/16 06:49:30;;;;;;;36.42;25.02;;;10.70;99.90;;;;;;5076914;28;20903;-81
2023/05/16 06:51:56;;;;;;;34.13;24.23;;;10.70;99.90;;;;;;5077643;28;20393;-83
2023/05/16 06:54:21;;;;;;;35.37;24.30;;;10.60;99.90;;;;;;5085765;28;20403;-81
2023/05/16 06:56:47;;;;;;;29.10;21.60;;;10.70;99.90;;;;;;5055750;28;20391;-80
2023/05/16 06:59:12;;;;;;;27.48;20.02;;;10.60;99.90;;;;;;5055416;28;20402;-81
2023/05/16 07:01:38;;;;;;;32.88;22.88;;;10.70;99.90;;;;;;5073622;28;20396;-81
2023/05/16 07:04:04;;;;;;;31.50;23.07;;;10.70;99.90;;;;;;5077392;28;20434;-81
2023/05/16 07:06:29;;;;;;;29.00;21.73;;;10.70;99.90;;;;;;5114770;28;20399;-80
2023/05/16 07:08:55;;;;;;;30.00;20.95;;;10.70;99.90;;;;;;5113959;28;20407;-80
2023/05/16 07:11:20;;;;;;;26.40;18.80;;;10.70;99.90;;;;;;5106556;28;20397;-80
2023/05/16 07:13:46;;;;;;;27.00;21.03;;;10.70;99.90;;;;;;5092854;28;20911;-80
2023/05/16 07:16:12;;;;;;;26.70;18.73;;;10.70;99.90;;;;;;5093365;28;20482;-79
2023/05/16 07:18:37;;;;;;;28.25;20.20;;;10.70;99.90;;;;;;5093418;28;20382;-80
2023/05/16 07:21:03;;;;;;;26.75;19.67;;;10.60;99.90;;;;;;5076022;28;20393;-80
2023/05/16 07:23:28;;;;;;;27.58;19.90;;;10.60;99.90;;;;;;5095037;28;20386;-80
2023/05/16 07:25:54;;;;;;;29.17;21.67;;;10.70;99.90;;;;;;5066747;28;20936;-81
2023/05/16 07:28:20;;;;;;;28.90;22.73;;;10.60;99.90;;;;;;5054945;28;20407;-80
2023/05/16 07:30:46;;;;;;;31.15;23.38;;;10.60;99.90;;;;;;5072933;28;20798;-80
2023/05/16 07:33:11;;;;;;;30.23;22.42;;;10.70;99.90;;;;;;5074836;28;20422;-82
2023/05/16 07:35:37;;;;;;;30.65;22.38;;;10.70;99.90;;;;;;5085887;28;20766;-83
2023/05/16 07:38:05;;;;;;;33.58;23.67;;;10.70;99.90;;;;;;5071372;28;21008;-82
2023/05/16 07:40:30;;;;;;;33.03;22.63;;;10.70;99.90;;;;;;5094483;28;20417;-82
2023/05/16 07:42:56;;;;;;;34.30;23.17;;;10.80;99.90;;;;;;5076524;28;20382;-82
2023/05/16 07:45:21;;;;;;;31.38;23.65;;;10.90;99.90;;;;;;5094030;28;20918;-82
2023/05/16 07:47:47;;;;;;;32.00;23.45;;;10.80;99.90;;;;;;5094326;28;20478;-82
2023/05/16 07:50:12;;;;;;;29.67;22.83;;;10.90;99.90;;;;;;5094276;28;20895;-82
2023/05/16 07:52:38;;;;;;;30.40;22.50;;;10.90;99.90;;;;;;5071587;28;20390;-81
2023/05/16 07:55:06;;;;;;;27.97;22.70;;;10.90;99.90;;;;;;5089367;28;20773;-82
2023/05/16 07:57:31;;;;;;;30.92;22.83;;;10.90;99.90;;;;;;5093431;28;20899;-82
2023/05/16 07:59:57;;;;;;;27.90;20.80;;;10.80;99.90;;;;;;5093481;28;20381;-82
2023/05/16 08:02:29;;;;;;;30.92;23.45;;;10.80;99.90;;;;;;5093406;28;20393;-82
2023/05/16 08:04:56;;;;;;;30.50;23.23;;;10.80;99.90;;;;;;5099394;28;20490;-81
2023/05/16 08:07:22;;;;;;;31.30;23.90;;;10.80;99.90;;;;;;5096229;28;20489;-82
2023/05/16 08:09:47;;;;;;;29.80;23.73;;;10.90;99.90;;;;;;5100348;28;20388;-82
2023/05/16 08:12:13;;;;;;;33.53;23.20;;;10.90;99.90;;;;;;5099500;28;20368;-80
2023/05/16 08:14:38;;;;;;;32.50;24.13;;;10.80;99.90;;;;;;5100327;28;20800;-80
2023/05/16 08:17:04;;;;;;;36.15;23.80;;;10.80;99.90;;;;;;5068819;28;20890;-81
2023/05/16 08:19:31;;;;;;;34.03;24.02;;;10.90;99.90;;;;;;5081180;28;20392;-83
2023/05/16 08:21:57;;;;;;;28.40;21.92;;;11.00;99.90;;;;;;5079524;28;20369;-82
2023/05/16 08:24:22;;;;;;;31.33;22.57;;;10.80;99.90;;;;;;5097315;28;20500;-82
2023/05/16 08:26:48;;;;;;;32.10;22.42;;;10.90;99.90;;;;;;5088694;28;20395;-82
2023/05/16 08:29:13;;;;;;;30.50;23.00;;;10.90;99.90;;;;;;5077101;28;20502;-82
2023/05/16 08:31:39;;;;;;;29.90;23.00;;;10.90;99.90;;;;;;5082257;28;20393;-82
2023/05/16 08:34:05;;;;;;;30.57;23.70;;;10.90;99.90;;;;;;5097306;28;20392;-82
2023/05/16 08:36:34;;;;;;;32.23;24.47;;;11.00;99.90;;;;;;5096128;28;20403;-82
2023/05/16 08:39:00;;;;;;;28.02;22.70;;;11.00;99.90;;;;;;5078843;28;20392;-82
2023/05/16 08:41:25;;;;;;;28.48;20.83;;;10.90;99.90;;;;;;5094766;28;20378;-82
2023/05/16 08:43:51;;;;;;;29.43;21.63;;;10.90;99.90;;;;;;5070705;28;20416;-82
2023/05/16 08:46:21;;;;;;;26.67;22.67;;;10.80;99.90;;;;;;5078740;28;20730;-82
2023/05/16 08:48:51;;;;;;;30.17;21.90;;;10.90;99.90;;;;;;5079136;28;20447;-82
2023/05/16 08:51:18;;;;;;;28.07;21.60;;;11.00;99.90;;;;;;5095892;28;20381;-81
2023/05/16 08:53:51;;;;;;;29.38;20.83;;;11.00;99.90;;;;;;5094085;28;20974;-79
2023/05/16 08:56:17;;;;;;;26.90;20.48;;;11.00;99.90;;;;;;5076386;28;20383;-82
2023/05/16 08:58:43;;;;;;;29.08;20.80;;;11.00;99.90;;;;;;5058326;28;20384;-79
2023/05/16 09:01:09;;;;;;;27.60;20.75;;;11.00;99.90;;;;;;5090932;28;20405;-80
2023/05/16 09:03:36;;;;;;;28.15;20.88;;;11.00;99.90;;;;;;5096175;28;20389;-82
2023/05/16 09:06:04;;;;;;;27.38;21.33;;;11.00;99.90;;;;;;5095012;28;20389;-81
2023/05/16 09:08:31;;;;;;;27.90;20.73;;;10.90;99.90;;;;;;5115791;28;20400;-82
2023/05/16 09:10:56;;;;;;;26.63;20.08;;;10.90;99.90;;;;;;5102202;28;20390;-83
2023/05/16 09:13:23;;;;;;;26.30;20.93;;;10.90;99.90;;;;;;5077537;28;20381;-82
2023/05/16 09:16:08;;;;;;;27.30;21.15;;;10.90;99.90;;;;;;5063899;28;20466;-82
2023/05/16 09:18:34;;;;;;;29.05;21.83;;;10.80;99.90;;;;;;5096851;28;20385;-82
2023/05/16 09:21:00;;;;;;;31.73;21.65;;;10.90;99.90;;;;;;5078324;28;20402;-81
2023/05/16 09:23:26;;;;;;;34.55;23.98;;;10.90;99.90;;;;;;5095730;28;20386;-82
2023/05/16 09:25:52;;;;;;;30.63;22.40;;;10.90;99.90;;;;;;5094494;28;20373;-83
2023/05/16 09:28:18;;;;;;;34.63;22.02;;;10.90;99.90;;;;;;5075864;28;20406;-81
2023/05/16 09:30:45;;;;;;;32.30;22.95;;;10.90;99.90;;;;;;5079560;28;20467;-83
2023/05/16 09:33:11;;;;;;;34.63;23.35;;;10.90;99.90;;;;;;5069147;28;20386;-81
2023/05/16 09:35:37;;;;;;;29.58;22.50;;;10.90;99.90;;;;;;5074585;28;20383;-79
2023/05/16 09:38:03;;;;;;;29.25;22.30;;;10.90;99.90;;;;;;5112958;28;20401;-79
2023/05/16 09:40:29;;;;;;;31.17;23.23;;;10.90;99.90;;;;;;5112079;28;20394;-83
2023/05/16 09:43:05;;;;;;;29.50;22.43;;;10.90;99.90;;;;;;5086758;28;20394;-81
2023/05/16 09:45:33;;;;;;;35.00;23.88;;;10.90;99.90;;;;;;5097543;28;20378;-81
2023/05/16 09:48:04;;;;;;;32.20;23.25;;;11.00;99.90;;;;;;5078199;28;20415;-81
2023/05/16 09:50:33;;;;;;;32.60;23.00;;;11.00;99.90;;;;;;5070426;28;20410;-80
2023/05/16 09:52:58;;;;;;;31.48;23.50;;;11.00;99.90;;;;;;5078269;28;20457;-80
2023/05/16 09:55:24;;;;;;;32.90;23.77;;;11.10;99.90;;;;;;5077841;28;20417;-80
2023/05/16 09:57:50;;;;;;;33.57;22.73;;;11.00;99.90;;;;;;5095324;28;20843;-80
2023/05/16 10:00:16;;;;;;;33.92;23.83;;;11.00;99.90;;;;;;5086745;28;20391;-81
2023/05/16 10:02:42;;;;;;;28.52;21.52;;;11.10;99.90;;;;;;5110336;22;20463;-88
2023/05/16 10:05:08;;;;;;;28.50;23.00;;;11.20;99.90;;;;;;5113575;28;20442;-88
2023/05/16 10:07:35;;;;;;;30.23;22.10;;;11.20;99.90;;;;;;5094330;28;20400;-87
2023/05/16 10:10:11;;;;;;;29.35;22.75;;;11.10;99.90;;;;;;5095176;28;20388;-87
2023/05/16 10:12:37;;;;;;;32.70;23.07;;;11.20;99.90;;;;;;5113087;28;20427;-88
2023/05/16 10:15:04;;;;;;;30.60;22.00;;;11.30;99.90;;;;;;5113180;28;20380;-88
2023/05/16 10:17:32;;;;;;;30.77;22.85;;;11.20;99.90;;;;;;5074430;28;20768;-87
2023/05/16 10:20:03;;;;;;;31.77;22.15;;;11.20;99.90;;;;;;5092574;28;20378;-87
2023/05/16 10:22:33;;;;;;;30.02;22.52;;;11.20;99.90;;;;;;5077481;28;20392;-87
2023/05/16 10:25:22;;;;;;;27.60;21.67;;;11.30;99.90;;;;;;5094724;28;20384;-87
2023/05/16 10:27:48;;;;;;;28.75;21.80;;;11.30;99.90;;;;;;5095501;28;20898;-86
2023/05/16 10:30:14;;;;;;;27.65;22.15;;;11.20;99.90;;;;;;5130201;28;20376;-87
2023/05/16 10:32:41;;;;;;;31.98;22.70;;;11.20;99.90;;;;;;5110833;28;20382;-87
2023/05/16 10:35:08;;;;;;;27.67;20.98;;;11.30;99.90;;;;;;5117022;28;20386;-87
2023/05/16 10:37:35;;;;;;;28.58;21.98;;;11.30;99.90;;;;;;5081278;28;20393;-87
2023/05/16 10:40:04;;;;;;;26.97;21.43;;;11.20;99.90;;;;;;5075564;28;20454;-88
2023/05/16 10:42:31;;;;;;;33.03;22.43;;;11.30;99.90;;;;;;5092390;28;20416;-87
2023/05/16 10:45:14;;;;;;;30.50;22.27;;;11.30;99.90;;;;;;5095382;28;20380;-87
2023/05/16 10:47:40;;;;;;;28.70;21.20;;;11.30;99.90;;;;;;5113370;28;20444;-87
2023/05/16 10:50:06;;;;;;;25.93;20.17;;;11.30;99.90;;;;;;5113171;28;20423;-88
2023/05/16 10:52:34;;;;;;;29.67;20.87;;;11.30;99.90;;;;;;5077324;28;20826;-88
2023/05/16 10:55:03;;;;;;;26.48;20.45;;;11.40;99.90;;;;;;5074049;28;20755;-87
2023/05/16 10:57:32;;;;;;;28.95;21.20;;;11.40;99.90;;;;;;5091690;28;20402;-87
2023/05/16 11:00:00;;;;;;;25.10;19.85;;;11.40;99.90;;;;;;5092972;28;20879;-87
2023/05/16 11:02:33;;;;;;;25.15;19.65;;;11.40;99.90;;;;;;5074488;28;20429;-88
2023/05/16 11:05:00;;;;;;;24.70;19.52;;;11.60;99.90;;;;;;5092610;28;20571;-86
2023/05/16 11:07:35;;;;;;;22.33;19.43;;;11.50;99.90;;;;;;5105580;28;20462;-87
2023/05/16 11:10:05;;;;;;;24.83;18.23;;;11.40;99.90;;;;;;5112992;28;20395;-88
2023/05/16 11:12:48;;;;;;;20.90;17.45;;;11.40;99.90;;;;;;5112521;28;20441;-88
2023/05/16 11:15:24;;;;;;;19.85;17.35;;;11.40;99.90;;;;;;5091914;28;20397;-87
2023/05/16 11:18:03;;;;;;;20.20;16.08;;;11.40;99.90;;;;;;5091398;28;20405;-87
2023/05/16 11:20:31;;;;;;;19.35;15.77;;;11.40;99.90;;;;;;5073803;28;20390;-87
2023/05/16 11:23:20;;;;;;;17.67;14.73;;;11.60;99.90;;;;;;5091392;28;20432;-87
2023/05/16 11:25:57;;;;;;;16.17;13.77;;;11.60;99.90;;;;;;5091319;28;20757;-86
2023/05/16 11:28:26;;;;;;;14.15;12.65;;;11.60;99.90;;;;;;5111792;28;20392;-87
2023/05/16 11:30:55;;;;;;;15.00;13.00;;;11.50;99.90;;;;;;5094185;28;20596;-86
2023/05/16 11:33:23;;;;;;;14.80;12.60;;;11.50;99.90;;;;;;5089047;28;20394;-85
2023/05/16 11:36:08;;;;;;;13.63;12.10;;;11.70;99.90;;;;;;5087295;28;20379;-86
2023/05/16 11:38:34;;;;;;;13.15;11.02;;;11.60;99.90;;;;;;5105605;28;20390;-86
2023/05/16 11:41:04;;;;;;;12.13;10.80;;;11.50;99.90;;;;;;5099963;28;20414;-86
2023/05/16 11:43:37;;;;;;;13.25;10.95;;;11.50;99.90;;;;;;5104980;28;20479;-85
2023/05/16 11:46:03;;;;;;;12.10;10.20;;;11.40;99.90;;;;;;5102271;28;20634;-86
2023/05/16 11:48:29;;;;;;;12.75;10.52;;;11.40;99.90;;;;;;5077714;28;20986;-86
2023/05/16 11:50:54;;;;;;;11.10;9.82;;;11.40;99.90;;;;;;5076659;28;20391;-86
2023/05/16 11:53:21;;;;;;;11.70;10.10;;;11.40;99.90;;;;;;5093085;28;20389;-86
2023/05/16 11:55:51;;;;;;;15.60;11.80;;;11.30;99.90;;;;;;5116028;28;20844;-86
2023/05/16 11:58:18;;;;;;;13.45;10.60;;;11.30;99.90;;;;;;5104573;28;20390;-86
2023/05/16 12:00:49;;;;;;;13.93;10.55;;;11.40;99.90;;;;;;5090092;28;20394;-86
2023/05/16 12:03:14;;;;;;;13.65;10.55;;;11.50;99.90;;;;;;5097783;28;20883;-86
2023/05/16 12:05:50;;;;;;;12.70;10.68;;;11.40;99.90;;;;;;5098782;28;20397;-85
2023/05/16 12:08:16;;;;;;;15.15;11.05;;;11.30;99.90;;;;;;5100607;28;20402;-85
2023/05/16 12:10:41;;;;;;;11.13;9.90;;;11.50;99.90;;;;;;5122464;28;20427;-85
2023/05/16 12:13:07;;;;;;;11.70;10.50;;;11.40;99.90;;;;;;5122248;28;20376;-85
2023/05/16 12:15:33;;;;;;;10.43;9.27;;;11.50;99.90;;;;;;5114946;28;20995;-84
2023/05/16 12:17:59;;;;;;;9.80;8.82;;;11.50;99.90;;;;;;5094225;28;20437;-85
2023/05/16 12:20:25;;;;;;;10.30;9.00;;;11.40;99.90;;;;;;5089423;28;20900;-85
2023/05/16 12:22:51;;;;;;;10.18;9.15;;;11.40;99.90;;;;;;5103700;28;20420;-81
2023/05/16 12:25:27;;;;;;;8.70;7.90;;;11.40;99.90;;;;;;5085738;28;20393;-78
2023/05/16 12:27:54;;;;;;;8.18;7.38;;;11.40;99.90;;;;;;5106119;28;20493;-82
2023/05/16 12:30:24;;;;;;;7.90;7.20;;;11.40;99.90;;;;;;5105735;28;20386;-81
2023/05/16 12:33:00;;;;;;;7.40;6.70;;;11.40;99.90;;;;;;5091780;28;20393;-80